createdAt,value
2019-04-05T00:02:13.189Z,83.35
2019-04-05T00:04:44.539Z,83.54
2019-04-05T00:07:15.838Z,83.74
2019-04-05T00:09:47.283Z,83.81
2019-04-05T00:12:18.589Z,83.86
2019-04-05T00:14:49.909Z,83.90
2019-04-05T00:17:21.203Z,83.96
2019-04-05T00:19:52.425Z,84.17
2019-04-05T00:22:23.741Z,84.28
2019-04-05T00:24:55.073Z,84.28
2019-04-05T00:27:26.393Z,84.33
2019-04-05T00:29:57.929Z,84.15
2019-04-05T00:32:29.085Z,84.31
2019-04-05T00:35:00.290Z,84.58
2019-04-05T00:37:31.537Z,84.61
2019-04-05T00:40:02.859Z,84.65
2019-04-05T00:42:34.136Z,84.95
2019-04-05T00:45:05.854Z,85.14
2019-04-05T00:47:37.335Z,85.21
2019-04-05T00:50:09.751Z,85.36
2019-04-05T00:52:40.956Z,85.51
2019-04-05T00:55:12.530Z,85.68
2019-04-05T00:57:43.908Z,85.78
2019-04-05T01:00:16.051Z,85.77
2019-04-05T01:02:47.345Z,85.78
2019-04-05T01:05:18.747Z,85.80
2019-04-05T01:07:50.331Z,85.96
2019-04-05T01:10:22.175Z,86.12
2019-04-05T01:12:53.967Z,86.16
2019-04-05T01:15:25.382Z,86.21
2019-04-05T01:17:56.740Z,85.71
2019-04-05T01:20:33.377Z,85.40
2019-04-05T01:23:04.964Z,85.71
2019-04-05T01:25:38.347Z,85.86
2019-04-05T01:28:09.846Z,85.94
2019-04-05T01:30:41.193Z,86.01
2019-04-05T01:33:12.499Z,86.08
2019-04-05T01:35:43.761Z,85.85
2019-04-05T01:38:15.195Z,86.11
2019-04-05T01:40:48.251Z,85.75
2019-04-05T01:43:19.894Z,85.82
2019-04-05T01:45:53.849Z,85.45
2019-04-05T01:48:24.610Z,85.50
2019-04-05T01:50:55.828Z,84.51
2019-04-05T01:53:28.051Z,84.64
2019-04-05T01:55:59.388Z,84.77
2019-04-05T01:58:30.661Z,84.68
2019-04-05T02:01:02.138Z,84.63
2019-04-05T02:03:33.600Z,84.65
2019-04-05T02:06:05.068Z,83.69
2019-04-05T02:08:36.975Z,82.78
2019-04-05T02:11:08.390Z,82.65
2019-04-05T02:13:42.618Z,82.02
2019-04-05T02:16:14.037Z,82.59
2019-04-05T02:18:45.325Z,82.88
2019-04-05T02:21:16.704Z,82.89
2019-04-05T02:23:47.943Z,83.00
2019-04-05T02:26:19.223Z,83.14
2019-04-05T02:28:50.552Z,83.44
2019-04-05T02:31:21.844Z,83.65
2019-04-05T02:33:53.299Z,83.85
2019-04-05T02:36:24.687Z,83.97
2019-04-05T02:38:55.996Z,84.07
2019-04-05T02:41:30.757Z,84.08
2019-04-05T02:44:04.185Z,84.02
2019-04-05T02:46:36.309Z,83.82
2019-04-05T02:49:08.336Z,83.63
2019-04-05T02:51:42.177Z,83.21
2019-04-05T02:54:14.127Z,83.29
2019-04-05T02:56:46.025Z,83.48
2019-04-05T02:59:18.904Z,83.52
2019-04-05T03:01:51.063Z,83.39
2019-04-05T03:04:22.393Z,83.45
2019-04-05T03:06:54.667Z,83.46
2019-04-05T03:09:26.607Z,83.36
2019-04-05T03:11:59.504Z,82.53
2019-04-05T03:14:32.573Z,82.28
2019-04-05T03:17:04.583Z,82.21
2019-04-05T03:19:39.210Z,82.05
2019-04-05T03:22:14.627Z,81.91
2019-04-05T03:24:48.626Z,82.19
2019-04-05T03:27:29.521Z,82.60
2019-04-05T03:30:02.582Z,83.00
2019-04-05T03:32:34.035Z,83.26
2019-04-05T03:35:05.722Z,83.31
2019-04-05T03:37:37.042Z,83.30
2019-04-05T03:40:08.867Z,83.73
2019-04-05T03:42:40.347Z,83.85
2019-04-05T03:45:12.061Z,83.96
2019-04-05T03:47:43.396Z,83.63
2019-04-05T03:50:14.893Z,83.38
2019-04-05T03:52:46.826Z,83.12
2019-04-05T03:55:18.439Z,82.77
2019-04-05T03:57:49.846Z,82.72
2019-04-05T04:00:21.139Z,82.96
2019-04-05T04:02:53.216Z,83.10
2019-04-05T04:05:24.600Z,82.22
2019-04-05T04:07:56.365Z,82.52
2019-04-05T04:10:29.943Z,82.87
2019-04-05T04:13:01.362Z,83.07
2019-04-05T04:15:33.780Z,83.33
2019-04-05T04:18:07.269Z,83.21
2019-04-05T04:20:47.401Z,83.60
2019-04-05T04:23:19.357Z,83.86
2019-04-05T04:25:52.700Z,83.84
2019-04-05T04:28:24.134Z,84.34
2019-04-05T04:30:55.904Z,83.95
2019-04-05T04:33:34.021Z,83.89
2019-04-05T04:36:05.879Z,83.99
2019-04-05T04:38:37.245Z,83.87
2019-04-05T04:41:09.053Z,83.74
2019-04-05T04:43:40.393Z,84.08
2019-04-05T04:46:11.758Z,84.25
2019-04-05T04:48:45.015Z,83.82
2019-04-05T04:51:16.828Z,84.07
2019-04-05T04:53:49.005Z,84.32
2019-04-05T04:56:20.431Z,84.04
2019-04-05T04:58:51.978Z,84.17
2019-04-05T05:01:23.720Z,84.25
2019-04-05T05:03:57.712Z,84.68
2019-04-05T05:06:29.469Z,84.81
2019-04-05T05:09:01.458Z,84.47
2019-04-05T05:11:32.631Z,84.67
2019-04-05T05:14:04.515Z,84.99
2019-04-05T05:16:35.998Z,85.26
2019-04-05T05:19:07.591Z,85.45
2019-04-05T05:21:39.487Z,85.16
2019-04-05T05:24:10.726Z,84.75
2019-04-05T05:26:42.379Z,84.39
2019-04-05T05:29:13.883Z,84.18
2019-04-05T05:31:45.126Z,83.32
2019-04-05T05:34:16.588Z,82.43
2019-04-05T05:36:48.137Z,82.39
2019-04-05T05:39:19.856Z,82.13
2019-04-05T05:41:53.976Z,82.65
2019-04-05T05:44:25.412Z,82.88
2019-04-05T05:46:56.686Z,82.29
2019-04-05T05:49:27.970Z,82.12
2019-04-05T05:51:59.507Z,82.56
2019-04-05T05:54:30.769Z,82.18
2019-04-05T05:57:01.995Z,82.57
2019-04-05T05:59:33.295Z,83.15
2019-04-05T06:02:07.155Z,83.46
2019-04-05T06:04:37.488Z,82.69
2019-04-05T06:07:09.386Z,83.18
2019-04-05T06:09:40.629Z,83.40
2019-04-05T06:12:11.877Z,83.62
2019-04-05T06:14:43.167Z,83.07
2019-04-05T06:17:14.350Z,83.30
2019-04-05T06:19:45.517Z,83.51
2019-04-05T06:22:16.695Z,83.63
2019-04-05T06:24:47.883Z,83.74
2019-04-05T06:27:22.185Z,83.82
2019-04-05T06:29:53.378Z,83.90
2019-04-05T06:32:24.647Z,82.25
2019-04-05T06:34:55.944Z,81.48
2019-04-05T06:39:56.795Z,79.60
2019-04-05T06:42:27.955Z,79.03
2019-04-05T06:44:59.202Z,79.23
2019-04-05T06:47:30.462Z,78.19
2019-04-05T06:50:01.727Z,78.48
2019-04-05T06:52:32.972Z,77.52
2019-04-05T06:55:04.349Z,77.70
2019-04-05T06:57:35.600Z,77.97
2019-04-05T07:00:07.486Z,76.02
2019-04-05T07:02:38.721Z,75.47
2019-04-05T07:05:10.104Z,76.16
2019-04-05T07:07:41.408Z,75.43
2019-04-05T07:10:12.890Z,74.98
2019-04-05T07:12:44.184Z,75.45
2019-04-05T07:15:15.656Z,75.51
2019-04-05T07:17:46.868Z,75.79
2019-04-05T07:20:18.189Z,76.00
2019-04-05T07:22:49.442Z,76.08
2019-04-05T07:25:20.659Z,76.05
2019-04-05T07:27:51.893Z,76.45
2019-04-05T07:30:23.376Z,76.76
2019-04-05T07:32:54.669Z,76.75
2019-04-05T07:35:33.512Z,76.53
2019-04-05T07:38:01.424Z,77.42
2019-04-05T07:40:32.754Z,76.68
2019-04-05T07:43:04.020Z,77.21
2019-04-05T07:45:35.183Z,75.55
2019-04-05T07:48:06.541Z,75.21
2019-04-05T07:50:37.828Z,75.50
2019-04-05T07:53:23.390Z,74.50
2019-04-05T07:55:55.218Z,73.15
2019-04-05T07:58:26.648Z,72.45
2019-04-05T08:00:58.775Z,71.75
2019-04-05T08:03:30.065Z,69.78
2019-04-05T08:06:01.300Z,69.58
2019-04-05T08:08:50.199Z,69.94
2019-04-05T08:17:06.125Z,67.71
2019-04-05T08:19:37.397Z,67.56
2019-04-05T08:22:08.642Z,67.45
2019-04-05T08:24:39.870Z,67.45
2019-04-05T08:27:11.154Z,68.09
2019-04-05T08:29:42.391Z,66.65
2019-04-05T08:32:15.001Z,66.55
2019-04-05T08:34:46.406Z,66.55
2019-04-05T08:37:17.585Z,66.62
2019-04-05T08:39:48.838Z,65.42
2019-04-05T08:42:20.045Z,65.88
2019-04-05T08:44:51.192Z,65.83
2019-04-05T08:47:22.796Z,64.97
2019-04-05T08:49:54.276Z,64.82
2019-04-05T08:52:27.040Z,66.00
2019-04-05T08:54:58.471Z,66.46
2019-04-05T08:57:29.914Z,65.88
2019-04-05T09:00:01.112Z,65.85
2019-04-05T09:02:32.487Z,66.77
2019-04-05T09:05:03.857Z,66.87
2019-04-05T09:07:35.218Z,66.72
2019-04-05T09:10:07.247Z,66.41
2019-04-05T09:12:38.525Z,65.59
2019-04-05T09:15:10.277Z,66.17
2019-04-05T09:17:41.532Z,65.81
2019-04-05T09:20:13.065Z,64.55
2019-04-05T09:22:44.344Z,64.17
2019-04-05T09:25:15.584Z,62.85
2019-04-05T09:27:46.781Z,63.75
2019-04-05T09:30:19.050Z,62.53
2019-04-05T09:32:50.261Z,63.06
2019-04-05T09:35:21.631Z,62.59
2019-04-05T09:37:52.873Z,61.92
2019-04-05T09:40:24.249Z,62.03
2019-04-05T09:42:55.473Z,61.57
2019-04-05T09:45:26.807Z,61.75
2019-04-05T09:48:01.170Z,61.74
2019-04-05T09:50:32.488Z,62.10
2019-04-05T09:53:03.827Z,61.32
2019-04-05T09:55:37.672Z,61.41
2019-04-05T09:58:10.181Z,61.61
2019-04-05T10:00:41.709Z,62.35
2019-04-05T10:03:12.952Z,59.42
2019-04-05T10:05:44.374Z,59.99
2019-04-05T10:08:15.730Z,59.67
2019-04-05T10:10:47.057Z,60.39
2019-04-05T10:13:18.292Z,60.04
2019-04-05T10:15:49.568Z,59.73
2019-04-05T10:18:20.884Z,60.71
2019-04-05T10:20:52.118Z,60.36
2019-04-05T10:23:23.414Z,60.29
2019-04-05T10:25:54.708Z,60.68
2019-04-05T10:28:25.962Z,60.90
2019-04-05T10:30:57.172Z,61.19
2019-04-05T10:33:28.491Z,61.42
2019-04-05T10:35:59.832Z,61.21
2019-04-05T10:38:31.070Z,60.99
2019-04-05T10:41:02.327Z,61.45
2019-04-05T10:43:33.605Z,62.84
2019-04-05T10:46:05.819Z,61.45
2019-04-05T10:48:37.224Z,59.63
2019-04-05T10:51:08.532Z,59.99
2019-04-05T10:53:39.872Z,59.89
2019-04-05T10:56:11.136Z,59.08
2019-04-05T10:58:42.505Z,60.20
2019-04-05T11:01:14.791Z,59.03
2019-04-05T11:03:46.043Z,60.20
2019-04-05T11:06:17.355Z,60.07
2019-04-05T11:08:48.677Z,60.55
2019-04-05T11:16:57.512Z,59.80
2019-04-05T11:19:18.163Z,62.07
2019-04-05T11:21:52.179Z,61.46
2019-04-05T11:24:22.646Z,60.30
2019-04-05T11:26:53.893Z,60.82
2019-04-05T11:29:25.158Z,59.49
2019-04-05T11:31:57.691Z,59.11
2019-04-05T11:34:29.129Z,59.21
2019-04-05T11:37:02.819Z,58.51
2019-04-05T11:39:35.165Z,57.88
2019-04-05T11:42:06.768Z,57.29
2019-04-05T11:44:41.436Z,57.17
2019-04-05T11:47:12.958Z,58.76
2019-04-05T11:49:47.969Z,58.72
2019-04-05T11:52:19.380Z,59.22
2019-04-05T11:54:50.998Z,60.53
2019-04-05T11:57:22.343Z,61.92
2019-04-05T11:59:53.736Z,61.96
2019-04-05T12:02:32.823Z,61.37
2019-04-05T12:05:12.690Z,61.56
2019-04-05T12:08:05.180Z,60.14
2019-04-05T12:10:46.001Z,60.64
2019-04-05T12:13:38.915Z,60.31
2019-04-05T12:16:27.555Z,60.43
2019-04-05T12:18:59.558Z,60.41
2019-04-05T12:21:34.804Z,62.02
2019-04-05T12:24:11.347Z,62.47
2019-04-05T12:26:46.181Z,62.60
2019-04-05T12:29:28.800Z,61.74
2019-04-05T12:32:08.494Z,60.97
2019-04-05T12:34:52.719Z,60.71
2019-04-05T12:37:27.210Z,61.34
2019-04-05T12:40:14.871Z,61.05
2019-04-05T12:43:00.338Z,60.33
2019-04-05T12:45:44.309Z,59.06
2019-04-05T12:48:16.000Z,58.46
2019-04-05T12:51:01.688Z,58.45
2019-04-05T12:53:38.177Z,58.76
2019-04-05T12:56:10.906Z,57.62
2019-04-05T12:58:43.607Z,59.16
2019-04-05T13:01:24.006Z,59.38
2019-04-05T13:03:58.390Z,59.49
2019-04-05T13:06:28.259Z,58.25
2019-04-05T13:08:59.488Z,59.02
2019-04-05T13:11:30.759Z,57.73
2019-04-05T13:14:02.063Z,60.09
2019-04-05T13:16:33.321Z,60.15
2019-04-05T13:19:04.579Z,60.28
2019-04-05T13:21:36.227Z,60.26
2019-04-05T13:24:10.002Z,60.69
2019-04-05T13:26:42.045Z,61.93
2019-04-05T13:29:13.391Z,61.74
2019-04-05T13:31:51.635Z,61.36
2019-04-05T13:34:25.642Z,60.57
2019-04-05T13:36:55.890Z,60.96
2019-04-05T13:39:27.540Z,61.17
2019-04-05T13:42:01.800Z,61.52
2019-04-05T13:44:33.052Z,61.24
2019-04-05T13:47:10.864Z,61.12
2019-04-05T13:49:42.238Z,60.50
2019-04-05T13:52:13.502Z,59.83
2019-04-05T13:54:44.847Z,60.25
2019-04-05T13:57:16.170Z,60.31
2019-04-05T13:59:47.559Z,61.12
2019-04-05T14:02:21.142Z,62.47
2019-04-05T14:04:53.877Z,63.36
2019-04-05T14:07:25.342Z,63.89
2019-04-05T14:12:40.193Z,63.85
2019-04-05T14:15:12.317Z,63.81
2019-04-05T14:17:44.746Z,63.31
2019-04-05T14:20:19.573Z,64.18
2019-04-05T14:22:52.333Z,65.13
2019-04-05T14:25:26.040Z,65.47
2019-04-05T14:27:56.695Z,65.92
2019-04-05T14:30:27.974Z,65.88
2019-04-05T14:32:59.274Z,66.59
2019-04-05T14:35:30.570Z,66.87
2019-04-05T14:38:01.708Z,66.49
2019-04-05T14:40:33.227Z,66.24
2019-04-05T14:43:04.544Z,66.82
2019-04-05T14:45:35.941Z,67.60
2019-04-05T14:48:07.328Z,67.13
2019-04-05T14:50:38.701Z,67.43
2019-04-05T14:53:09.866Z,67.78
2019-04-05T14:55:41.182Z,68.32
2019-04-05T14:58:12.385Z,68.55
2019-04-05T15:00:44.403Z,69.50
2019-04-05T15:03:16.630Z,69.18
2019-04-05T15:05:48.026Z,69.23
2019-04-05T15:08:20.716Z,68.96
2019-04-05T15:10:56.472Z,69.31
2019-04-05T15:13:25.278Z,69.36
2019-04-05T15:15:56.889Z,68.87
2019-04-05T15:18:28.384Z,69.20
2019-04-05T15:20:59.615Z,69.96
2019-04-05T15:23:30.794Z,70.19
2019-04-05T15:26:02.035Z,69.97
2019-04-05T15:28:33.386Z,70.46
2019-04-05T15:31:04.769Z,71.33
2019-04-05T15:33:36.086Z,71.61
2019-04-05T15:36:07.407Z,71.83
2019-04-05T15:38:38.654Z,72.64
2019-04-05T15:44:01.517Z,72.44
2019-04-05T15:46:32.785Z,72.36
2019-04-05T15:49:03.999Z,72.51
2019-04-05T15:51:35.273Z,71.75
2019-04-05T15:54:06.571Z,72.06
2019-04-05T15:56:37.796Z,71.54
2019-04-05T15:59:09.130Z,71.72
2019-04-05T16:01:41.180Z,72.88
2019-04-05T16:04:12.543Z,73.17
2019-04-05T16:06:43.770Z,73.41
2019-04-05T16:09:17.419Z,74.26
2019-04-05T16:11:49.748Z,74.17
2019-04-05T16:14:21.111Z,74.19
2019-04-05T16:16:53.724Z,74.52
2019-04-05T16:19:25.135Z,74.31
2019-04-05T16:21:56.384Z,74.37
2019-04-05T16:24:27.679Z,74.39
2019-04-05T16:26:58.983Z,74.88
2019-04-05T16:29:30.323Z,75.17
2019-04-05T16:32:01.627Z,75.40
2019-04-05T16:34:32.951Z,75.56
2019-04-05T16:37:04.518Z,76.08
2019-04-05T16:39:35.713Z,76.24
2019-04-05T16:42:09.988Z,76.53
2019-04-05T16:44:39.983Z,76.62
2019-04-05T16:47:11.149Z,76.99
2019-04-05T16:49:42.345Z,76.95
2019-04-05T16:52:13.590Z,76.94
2019-04-05T16:54:44.896Z,77.31
2019-04-05T16:57:16.128Z,77.48
2019-04-05T16:59:47.386Z,77.61
2019-04-05T17:02:18.627Z,77.69
2019-04-05T17:04:49.914Z,78.04
2019-04-05T17:07:21.147Z,78.34
2019-04-05T17:09:52.428Z,79.04
2019-04-05T17:12:23.633Z,78.95
2019-04-05T17:14:54.801Z,78.97
2019-04-05T17:17:26.034Z,79.26
2019-04-05T17:19:57.898Z,78.84
2019-04-05T17:22:33.508Z,79.36
2019-04-05T17:25:05.279Z,79.47
2019-04-05T17:27:36.502Z,79.02
2019-04-05T17:30:08.415Z,78.52
2019-04-05T17:32:39.578Z,78.47
2019-04-05T17:35:11.485Z,78.96
2019-04-05T17:37:42.733Z,79.45
2019-04-05T17:40:14.508Z,80.11
2019-04-05T17:42:45.757Z,80.39
2019-04-05T17:45:17.263Z,80.62
2019-04-05T17:47:48.477Z,80.55
2019-04-05T17:50:34.113Z,80.90
2019-04-05T17:53:12.583Z,80.08
2019-04-05T17:55:47.450Z,80.18
2019-04-05T17:58:19.883Z,80.23
2019-04-05T18:00:51.145Z,79.96
2019-04-05T18:03:22.413Z,79.75
2019-04-05T18:05:53.756Z,79.71
2019-04-05T18:08:24.943Z,79.82
2019-04-05T18:10:56.503Z,79.53
2019-04-05T18:13:27.795Z,79.39
2019-04-05T18:15:59.058Z,79.57
2019-04-05T18:18:30.359Z,79.71
2019-04-05T18:21:01.651Z,79.77
2019-04-05T18:23:32.948Z,79.68
2019-04-05T18:26:04.194Z,80.28
2019-04-05T18:28:35.565Z,80.39
2019-04-05T18:31:06.847Z,80.30
2019-04-05T18:33:38.081Z,80.50
2019-04-05T18:36:09.554Z,80.70
2019-04-05T18:38:40.783Z,80.49
2019-04-05T18:49:18.229Z,81.30
2019-04-05T18:51:49.490Z,81.41
2019-04-05T18:54:20.708Z,81.42
2019-04-05T18:56:51.960Z,81.59
2019-04-05T18:59:23.205Z,81.82
2019-04-05T19:01:54.489Z,82.28
2019-04-05T19:04:25.726Z,82.20
2019-04-05T19:06:56.976Z,82.12
2019-04-05T19:09:28.219Z,82.30
2019-04-05T19:11:59.429Z,82.34
2019-04-05T19:14:30.699Z,82.55
2019-04-05T19:17:03.167Z,82.78
2019-04-05T19:19:34.441Z,82.69
2019-04-05T19:22:05.798Z,82.77
2019-04-05T19:24:37.173Z,83.30
2019-04-05T19:27:08.502Z,83.39
2019-04-05T19:29:39.770Z,83.44
2019-04-05T19:50:04.333Z,83.15
2019-04-05T19:52:35.669Z,83.38
2019-04-05T19:55:08.045Z,83.31
2019-04-05T19:57:39.167Z,83.25
2019-04-05T20:00:11.206Z,83.31
2019-04-05T20:02:50.140Z,83.26
2019-04-05T20:05:21.659Z,83.49
2019-04-05T20:07:53.093Z,83.27
2019-04-05T20:13:06.401Z,83.09
2019-04-05T20:15:37.653Z,83.05
2019-04-05T20:18:09.009Z,82.84
2019-04-05T20:20:40.262Z,82.86
2019-04-05T20:23:11.660Z,82.84
2019-04-05T20:25:42.964Z,82.78
2019-04-05T20:28:14.201Z,83.21
2019-04-05T20:30:45.520Z,83.11
2019-04-05T20:33:16.813Z,83.30
2019-04-05T20:35:48.164Z,83.54
2019-04-05T20:38:19.401Z,83.46
2019-04-05T20:40:50.730Z,83.49
2019-04-05T20:43:25.131Z,83.28
2019-04-05T20:45:59.308Z,82.95
2019-04-05T20:48:30.498Z,83.01
2019-04-05T20:51:05.112Z,82.73
2019-04-05T20:53:36.429Z,82.72
2019-04-05T20:56:07.760Z,82.58
2019-04-05T20:58:39.130Z,82.76
2019-04-05T21:01:10.440Z,82.13
2019-04-05T21:03:41.805Z,82.32
2019-04-05T21:06:13.298Z,82.49
2019-04-05T21:08:44.617Z,82.03
2019-04-05T21:11:15.867Z,82.16
2019-04-05T21:13:47.315Z,82.17
2019-04-05T21:16:18.671Z,82.00
2019-04-05T21:18:50.022Z,81.78
2019-04-05T21:21:21.481Z,81.95
2019-04-05T21:23:52.922Z,81.58
2019-04-05T21:26:24.384Z,82.01
2019-04-05T21:28:56.847Z,81.77
2019-04-05T21:31:28.227Z,81.57
2019-04-05T21:34:02.149Z,81.21
2019-04-05T21:36:57.166Z,81.12
2019-04-05T21:39:47.426Z,81.14
2019-04-05T21:42:18.765Z,80.98
2019-04-05T21:44:54.060Z,81.01
2019-04-05T21:47:25.417Z,81.29
2019-04-05T21:50:20.349Z,81.38
2019-04-05T21:52:51.615Z,81.61
2019-04-05T21:55:22.928Z,81.61
2019-04-05T21:57:54.253Z,81.29
2019-04-05T22:00:34.111Z,81.13
2019-04-05T22:03:05.600Z,81.43
2019-04-05T22:05:36.883Z,81.08
2019-04-05T22:08:11.016Z,81.24
2019-04-05T22:10:42.342Z,81.11
2019-04-05T22:13:25.533Z,81.46
2019-04-05T22:15:56.809Z,81.46
2019-04-05T22:18:28.236Z,81.26
2019-04-05T22:21:00.003Z,81.33
2019-04-05T22:23:31.302Z,81.60
2019-04-05T22:26:03.125Z,81.70
2019-04-05T22:28:34.403Z,81.68
2019-04-05T22:31:05.782Z,81.59
2019-04-05T22:33:37.472Z,81.89
2019-04-05T22:36:11.725Z,81.62
2019-04-05T22:38:42.944Z,81.37
2019-04-05T22:41:14.156Z,81.49
2019-04-05T22:43:45.489Z,81.79
2019-04-05T22:46:16.705Z,81.61
2019-04-05T22:48:47.990Z,81.57
2019-04-05T22:51:19.249Z,81.67
2019-04-05T22:53:50.538Z,81.74
2019-04-05T22:56:21.810Z,81.79
2019-04-05T22:58:53.144Z,81.81
2019-04-05T23:01:24.350Z,82.03
2019-04-05T23:03:55.582Z,81.78
2019-04-05T23:06:26.837Z,82.04
2019-04-05T23:08:58.199Z,82.06
2019-04-05T23:11:29.514Z,82.25
2019-04-05T23:14:00.860Z,82.60
2019-04-05T23:16:32.216Z,82.29
2019-04-05T23:19:03.504Z,82.22
2019-04-05T23:21:34.883Z,82.12
2019-04-05T23:24:06.221Z,81.99
2019-04-05T23:26:37.429Z,82.05
2019-04-05T23:29:08.686Z,81.96
2019-04-05T23:31:39.950Z,81.71
2019-04-05T23:34:11.165Z,82.18
2019-04-05T23:36:42.369Z,82.08
2019-04-05T23:39:13.662Z,81.95
2019-04-05T23:41:44.865Z,82.12
2019-04-05T23:44:16.094Z,82.12
2019-04-05T23:46:47.384Z,82.16
2019-04-05T23:49:18.687Z,82.41
2019-04-05T23:51:51.170Z,82.05
2019-04-05T23:54:22.499Z,82.35
2019-04-05T23:56:53.689Z,82.01
2019-04-05T23:59:24.993Z,81.81
